Franklin, Argentina
Current Conditions -  °F | °C
As of 1:00 PM on Sunday 21 Dec 2014 (Local Time) from SADF Reporting Station
Clear Clear  
Wind Chill: 21°   Ceiling: Unl
Heat Index: 21°   Visibility: 6mi
Dew Point:   Wind: 12mph
Humidity: 40%   Direction: 180°S
Pressure: 29.77"   Gusts: NA
Location:  34.6°S, 59.62°W
Report Text: SADF 211600Z 18010KT CAVOK 21/07 Q1008
Loading
Personal Weather Stations






























Interactive Weather Map New forecast layout! Learn more

10-Day Weather Forecast

Advertisements
Track Severe Weather on mobile